Meteorología y climatología de Navarra
Datos de la estación - Meteo Navarra

Estación de Eltzaburu GN

Altitud 588 m.


Datos desde el 09/11/2019 hasta el 10/11/2019 en horario solar
Los datos son PROVISIONALES

Anterior Página 1 de 1 Siguiente Descargar: Formato para Excel 2000 o superior   Formato csv   Formato para OpenOffice Calc
Fecha Temperatura Humedad relativa Radiación global Insolación Precipitación Vel. viento 10 m Vel. viento 10 m Dir. viento 10 m
ºC % W/m² s l/m² m/s km/h º
09/11/2019 0:00 5.6 89 0.0 0 0.2 2.7 9.7 304
09/11/2019 0:10 5.8 89 0.0 0 0.9 2.9 10.6 316
09/11/2019 0:20 5.6 90 0.0 0 0.2 2.3 8.1 290
09/11/2019 0:30 5.4 90 0.0 0 0.0 1.9 6.9 285
09/11/2019 0:40 5.3 92 0.0 0 0.0 1.6 5.8 286
09/11/2019 0:50 5.1 93 0.0 0 0.1 2.0 7.0 295
09/11/2019 1:00 5.3 93 0.0 0 0.2 2.7 9.7 313
09/11/2019 1:10 5.9 87 0.0 0 0.6 3.1 11.1 317
09/11/2019 1:20 5.8 89 0.0 0 1.0 2.3 8.2 338
09/11/2019 1:30 5.5 89 0.0 0 0.4 2.3 8.2 319
09/11/2019 1:40 5.3 91 0.0 0 0.2 1.9 6.9 330
09/11/2019 1:50 5.2 92 0.0 0 0.2 1.6 5.8 339
09/11/2019 2:00 5.2 92 0.0 0 0.2 1.6 5.6 331
09/11/2019 2:10 5.4 91 0.0 0 0.2 2.5 9.1 338
09/11/2019 2:20 5.9 88 0.0 0 0.2 2.1 7.5 349
09/11/2019 2:30 5.7 91 0.0 0 0.2 1.2 4.1 308
09/11/2019 2:40 5.6 93 0.0 0 0.7 1.1 4.1 283
09/11/2019 2:50 5.5 94 0.0 0 0.7 1.5 5.3 272
09/11/2019 3:00 5.4 95 0.0 0 0.3 0.7 2.7 295
09/11/2019 3:10 5.3 96 0.0 0 0.4 0.7 2.5 334
09/11/2019 3:20 5.3 96 0.0 0 0.3 1.0 3.4 225
09/11/2019 3:30 5.2 97 0.0 0 0.1 0.6 2.0 138
09/11/2019 3:40 5.1 97 0.0 0 0.1 0.9 3.2 105
09/11/2019 3:50 5.6 94 0.0 0 0.0 2.2 7.7 337
09/11/2019 4:00 6.3 88 0.0 0 0.0 2.7 9.9 333
09/11/2019 4:10 6.6 86 0.0 0 0.0 2.0 7.1 331
09/11/2019 4:20 6.3 90 0.0 0 0.7 1.5 5.5 292
09/11/2019 4:30 5.9 94 0.0 0 0.4 1.4 4.9 275
09/11/2019 4:40 5.7 95 0.0 0 0.2 0.6 2.1 331
09/11/2019 4:50 5.6 95 0.0 0 0.5 0.6 2.1 277
09/11/2019 5:00 5.6 95 0.0 0 0.7 1.9 7.0 340
09/11/2019 5:10 6.1 88 0.0 0 0.0 2.1 7.4 330
09/11/2019 5:20 6.1 87 0.0 0 0.0 1.5 5.5 341
09/11/2019 5:30 5.8 91 0.0 0 0.0 1.0 3.6 352
09/11/2019 5:40 5.6 92 0.0 0 0.0 1.0 3.5 330
09/11/2019 5:50 5.5 92 0.0 0 0.0 0.5 1.9 252
09/11/2019 6:00 5.2 94 0.0 0 0.0 0.4 1.6 107
09/11/2019 6:10 4.9 95 0.0 0 0.0 0.4 1.4 213
09/11/2019 6:20 4.7 96 0.0 0 0.0 0.8 2.9 137
09/11/2019 6:30 4.7 97 0.0 0 0.0 0.7 2.4 136
09/11/2019 6:40 4.7 97 0.0 0 0.0 0.3 1.0 182
09/11/2019 6:50 4.7 98 0.0 0 0.0 0.4 1.4 152
09/11/2019 7:00 4.7 98 0.0 0 0.0 0.4 1.5 104
09/11/2019 7:10 4.9 98 0.0 0 0.0 0.2 0.8 221
09/11/2019 7:20 5.0 98 0.0 0 0.0 0.1 0.3 238
09/11/2019 7:30 5.1 98 5.9 0 0.1 0.1 0.3 176
09/11/2019 7:40 5.2 98 15.6 0 0.1 0.1 0.5 176
09/11/2019 7:50 5.3 98 24.2 0 0.1 0.7 2.4 138
09/11/2019 8:00 5.3 98 38.0 0 0.0 0.8 2.8 83
09/11/2019 8:10 5.5 98 46.0 0 0.1 1.0 3.7 79
09/11/2019 8:20 5.6 98 44.4 0 0.0 0.9 3.2 79
09/11/2019 8:30 5.8 98 39.0 0 0.0 0.6 2.0 94
09/11/2019 8:40 6.0 98 42.3 0 0.0 0.5 1.7 97
09/11/2019 8:50 6.0 98 54.8 0 0.0 0.9 3.1 99
09/11/2019 9:00 6.1 98 54.6 0 0.0 0.6 2.1 107
09/11/2019 9:10 6.2 98 67.9 0 0.0 0.7 2.6 118
09/11/2019 9:20 6.4 98 71.5 0 0.0 0.5 1.7 183
09/11/2019 9:30 6.4 95 62.8 0 0.1 1.3 4.8 197
09/11/2019 9:40 6.6 95 106.0 0 0.0 2.2 8.0 225
09/11/2019 9:50 6.7 94 82.8 0 0.0 2.0 7.2 250
09/11/2019 10:00 6.8 95 102.3 0 0.0 1.0 3.6 245
09/11/2019 10:10 7.0 95 110.3 0 0.0 0.7 2.4 190
09/11/2019 10:20 7.1 95 155.0 0 0.0 0.5 1.9 139
09/11/2019 10:30 7.3 95 311.2 516 0.0 0.6 2.0 155
09/11/2019 10:40 7.5 90 122.8 0 0.0 0.9 3.1 173
09/11/2019 10:50 7.6 93 217.0 130 0.0 0.6 2.2 114
09/11/2019 11:00 7.9 90 232.5 172 0.0 1.0 3.5 167
09/11/2019 11:10 7.7 90 182.3 0 0.0 1.0 3.5 164
09/11/2019 11:20 7.7 91 175.2 0 0.0 0.8 3.0 146
09/11/2019 11:30 8.0 90 165.1 0 0.0 0.6 2.2 114
09/11/2019 11:40 8.2 89 134.7 0 0.0 0.5 1.9 134
09/11/2019 11:50 8.1 85 174.0 0 0.0 2.0 7.2 193
09/11/2019 12:00 8.2 80 193.8 0 0.0 2.7 9.6 212
09/11/2019 12:10 8.1 80 120.4 0 0.0 3.2 11.4 211
09/11/2019 12:20 7.8 78 62.6 0 0.0 3.1 11.3 196
09/11/2019 12:30 7.4 81 89.4 0 0.1 2.3 8.4 199
09/11/2019 12:40 7.2 84 114.5 0 0.0 1.6 5.9 177
09/11/2019 12:50 7.2 84 126.9 0 0.1 2.0 7.0 168
09/11/2019 13:00 7.3 86 208.4 12 0.0 1.5 5.3 167
09/11/2019 13:10 7.6 85 329.0 512 0.0 2.2 7.9 169
09/11/2019 13:20 8.1 81 288.3 518 0.0 2.4 8.6 190
09/11/2019 13:30 8.2 82 208.8 0 0.0 1.5 5.4 174
09/11/2019 13:40 7.9 84 197.8 100 0.0 1.3 4.5 154
09/11/2019 13:50 7.9 82 42.4 0 0.2 2.4 8.5 186
09/11/2019 14:00 7.4 86 20.1 0 0.5 2.0 7.1 181
09/11/2019 14:10 6.9 91 29.2 0 0.6 1.5 5.5 154
09/11/2019 14:20 6.7 93 27.3 0 0.2 1.3 4.6 161
09/11/2019 14:30 6.7 93 8.0 0 0.5 1.6 5.8 151
09/11/2019 14:40 6.6 94 19.1 0 1.1 1.0 3.7 133
09/11/2019 14:50 6.5 96 23.0 0 0.7 0.6 2.1 129
09/11/2019 15:00 6.4 97 29.3 0 0.4 0.5 1.8 82
09/11/2019 15:10 6.4 97 27.1 0 0.5 0.8 2.7 89
09/11/2019 15:20 6.5 97 17.2 0 0.1 1.2 4.5 80
09/11/2019 15:30 6.4 97 0.0 0 0.0 1.0 3.7 80
09/11/2019 15:40 6.4 98 2.4 0 0.0 1.0 3.7 80
09/11/2019 15:50 6.4 98 0.0 0 0.0 1.0 3.5 76
09/11/2019 16:00 6.4 98 0.0 0 0.1 1.3 4.5 63
09/11/2019 16:10 6.4 98 0.0 0 0.2 1.0 3.6 88
09/11/2019 16:20 6.4 97 0.0 0 0.0 1.1 3.8 103
09/11/2019 16:30 6.4 98 0.0 0 0.1 1.4 5.1 75
09/11/2019 16:40 6.4 98 0.0 0 0.1 0.6 2.1 91
09/11/2019 16:50 6.5 98 0.0 0 0.4 0.7 2.7 74
09/11/2019 17:00 6.5 98 0.0 0 0.2 1.4 4.9 45
09/11/2019 17:10 6.9 96 0.0 0 0.0 1.2 4.3 129
09/11/2019 17:20 6.7 96 0.0 0 0.0 1.1 3.9 97
09/11/2019 17:30 6.6 97 0.0 0 0.2 1.0 3.7 65
09/11/2019 17:40 6.7 97 0.0 0 0.0 1.3 4.5 206
09/11/2019 17:50 6.7 98 0.0 0 0.0 0.7 2.3 56
09/11/2019 18:00 6.7 98 0.0 0 0.6 0.7 2.4 356
09/11/2019 18:10 6.9 97 0.0 0 0.2 0.7 2.4 345
09/11/2019 18:20 7.1 96 0.0 0 0.0 0.6 2.1 221
09/11/2019 18:30 7.3 95 0.0 0 0.6 1.7 6.2 271
09/11/2019 18:40 7.6 92 0.0 0 0.3 1.3 4.8 303
09/11/2019 18:50 7.6 90 0.0 0 0.6 2.9 10.4 314
09/11/2019 19:00 7.5 88 0.0 0 0.4 2.3 8.3 327
09/11/2019 19:10 7.1 91 0.0 0 0.8 1.8 6.6 317
09/11/2019 19:20 7.0 88 0.0 0 0.9 4.0 14.2 317
09/11/2019 19:30 6.5 85 0.0 0 0.9 4.7 17.1 320
09/11/2019 19:40 6.1 87 0.0 0 0.5 3.5 12.7 312
09/11/2019 19:50 5.9 89 0.0 0 0.3 1.8 6.5 307
09/11/2019 20:00 5.7 90 0.0 0 0.6 1.8 6.4 299
09/11/2019 20:10 5.6 91 0.0 0 0.5 2.1 7.4 302
09/11/2019 20:20 5.5 91 0.0 0 0.5 1.8 6.4 293
09/11/2019 20:30 5.3 91 0.0 0 0.5 2.4 8.6 306
09/11/2019 20:40 5.4 89 0.0 0 0.6 2.9 10.3 305
09/11/2019 20:50 5.2 93 0.0 0 0.8 1.9 6.7 305
09/11/2019 21:00 5.2 92 0.0 0 0.8 2.6 9.3 314
09/11/2019 21:10 5.4 88 0.0 0 0.5 2.5 8.8 318
09/11/2019 21:20 5.4 88 0.0 0 0.0 1.5 5.5 331
09/11/2019 21:30 5.2 91 0.0 0 0.1 0.4 1.4 340
09/11/2019 21:40 4.9 93 0.0 0 0.7 2.4 8.6 324
09/11/2019 21:50 5.3 87 0.0 0 0.7 3.4 12.3 316
09/11/2019 22:00 5.1 89 0.0 0 0.0 1.6 5.7 323
09/11/2019 22:10 5.2 88 0.0 0 0.1 2.3 8.2 352
09/11/2019 22:20 5.3 88 0.0 0 0.0 2.0 7.3 352
09/11/2019 22:30 5.7 86 0.0 0 0.0 2.4 8.5 350
09/11/2019 22:40 5.7 87 0.0 0 0.0 1.6 5.8 297
09/11/2019 22:50 5.6 88 0.0 0 0.0 1.2 4.4 333
09/11/2019 23:00 5.8 84 0.0 0 0.2 3.9 14.0 325
09/11/2019 23:10 5.7 82 0.0 0 0.0 2.5 8.9 330
09/11/2019 23:20 5.8 82 0.0 0 0.0 3.0 10.6 322
09/11/2019 23:30 5.7 84 0.0 0 0.0 2.1 7.6 310
09/11/2019 23:40 5.6 84 0.0 0 0.0 2.0 7.3 339
09/11/2019 23:50 5.7 85 0.0 0 0.5 2.2 7.9 287
Anterior Página 1 de 1 Siguiente

NOTA: Tipo de datos según el color:
   - Valores diarios o 10 minutos correctos
   - Valores diarios calculados a partir de un número de datos 10 minutos menor que 144 y mayor que 120, o de un número de datos semihorarios menor que 48 y mayor que 40 (caso de las estaciones de Riegos de Navarra y del MARM)
   - Valores diez minutos estimados


Contacto        Enlaces        Aviso legal